Time;durP1;ratioP1;P1;durP2;ratioP2;P2;SDS_P1;SDS_P2;PMS_P1;PMS_P2;Temp;Humidity;BMP_temperature;BMP_pressure;BME280_temperature;BME280_humidity;BME280_pressure;Samples;Min_cycle;Max_cycle;Signal;HPM_P1;HPM_P2
2022/01/10 00:00:11;;;;;;;7.63;4.72;;;2.40;99.90;;;;;;4935224;29;20031;-72
2022/01/10 00:02:38;;;;;;;9.82;4.57;;;2.40;99.90;;;;;;4935272;29;20042;-72
2022/01/10 00:05:04;;;;;;;9.07;4.50;;;2.40;99.90;;;;;;4952524;28;20540;-72
2022/01/10 00:07:33;;;;;;;9.50;4.20;;;2.40;99.90;;;;;;4952332;28;20040;-70
2022/01/10 00:10:09;;;;;;;10.13;3.88;;;2.30;99.90;;;;;;4945979;29;20042;-70
2022/01/10 00:12:35;;;;;;;8.30;4.13;;;2.30;99.90;;;;;;4945823;28;20031;-70
2022/01/10 00:15:02;;;;;;;13.85;5.30;;;2.30;99.90;;;;;;4933237;29;20035;-70
2022/01/10 00:17:27;;;;;;;8.15;3.53;;;2.30;99.90;;;;;;4950446;28;20105;-70
2022/01/10 00:19:53;;;;;;;7.93;3.78;;;2.30;99.90;;;;;;4948443;28;20110;-71
2022/01/10 00:22:23;;;;;;;9.27;4.00;;;2.30;99.90;;;;;;4933040;28;20134;-70
2022/01/10 00:24:49;;;;;;;12.15;4.47;;;2.40;99.90;;;;;;4927097;29;20027;-71
2022/01/10 00:27:14;;;;;;;8.98;3.95;;;2.30;99.90;;;;;;4943569;29;20043;-70
2022/01/10 00:29:40;;;;;;;8.57;4.32;;;2.40;99.90;;;;;;4948566;28;20036;-70
2022/01/10 00:32:09;;;;;;;11.98;5.60;;;2.30;99.90;;;;;;4931006;29;20031;-70
2022/01/10 00:34:34;;;;;;;11.65;4.97;;;2.30;99.90;;;;;;4943873;28;20057;-70
2022/01/10 00:37:00;;;;;;;8.95;5.25;;;2.30;99.90;;;;;;4946223;28;20027;-70
2022/01/10 00:39:26;;;;;;;12.45;5.00;;;2.30;99.90;;;;;;4947728;28;20019;-71
2022/01/10 00:41:55;;;;;;;12.23;5.40;;;2.30;99.90;;;;;;4946824;28;20038;-71
2022/01/10 00:44:27;;;;;;;9.40;5.00;;;2.40;99.90;;;;;;4948697;28;20505;-71
2022/01/10 00:46:53;;;;;;;11.60;5.05;;;2.30;99.90;;;;;;4949597;28;20031;-71
2022/01/10 00:49:19;;;;;;;10.13;5.32;;;2.30;99.90;;;;;;4945696;28;20023;-71
2022/01/10 00:51:45;;;;;;;11.05;5.13;;;2.40;99.90;;;;;;4946705;28;20030;-71
2022/01/10 00:54:13;;;;;;;10.70;5.07;;;2.40;99.90;;;;;;4948923;28;20082;-71
2022/01/10 00:56:39;;;;;;;12.00;5.50;;;2.40;99.90;;;;;;4949275;28;20162;-72
2022/01/10 00:59:08;;;;;;;12.80;5.60;;;2.40;99.90;;;;;;4950560;28;20019;-72
2022/01/10 01:01:34;;;;;;;9.82;5.20;;;2.40;99.90;;;;;;4948600;28;20085;-71
2022/01/10 01:04:02;;;;;;;10.85;5.18;;;2.40;99.90;;;;;;4947911;28;20023;-72
2022/01/10 01:06:28;;;;;;;11.73;5.45;;;2.40;99.90;;;;;;4949831;28;20137;-71
2022/01/10 01:09:00;;;;;;;13.25;6.50;;;2.40;99.90;;;;;;4946229;29;20040;-71
2022/01/10 01:12:15;;;;;;;10.73;5.57;;;2.40;99.90;;;;;;4948591;29;20567;-72
2022/01/10 01:14:24;;;;;;;8.60;4.72;;;2.40;99.90;;;;;;4945831;28;20413;-71
2022/01/10 01:17:09;;;;;;;8.38;4.50;;;2.40;99.90;;;;;;4948322;28;20094;-71
2022/01/10 01:25:04;;;;;;;;;;;2.50;99.90;;;;;;4948223;28;20078;-71
2022/01/10 01:27:29;;;;;;;10.77;4.22;;;2.50;99.90;;;;;;4926842;29;19918;-71
2022/01/10 01:29:55;;;;;;;11.50;4.68;;;2.50;99.90;;;;;;4949732;28;20098;-71
2022/01/10 01:32:21;;;;;;;10.13;5.25;;;2.50;99.90;;;;;;4947278;28;20044;-70
2022/01/10 01:34:47;;;;;;;8.13;5.43;;;2.50;99.90;;;;;;4948874;28;20031;-71
2022/01/10 01:37:13;;;;;;;13.70;5.25;;;2.50;99.90;;;;;;4951232;28;20098;-72
2022/01/10 01:39:39;;;;;;;12.48;5.65;;;2.50;99.90;;;;;;4947255;28;20477;-72
2022/01/10 01:42:51;;;;;;;13.98;6.63;;;2.50;99.90;;;;;;4949144;28;20051;-71
2022/01/10 01:44:51;;;;;;;13.27;7.35;;;2.50;99.90;;;;;;4936388;28;20519;-70
2022/01/10 01:47:17;;;;;;;12.23;6.82;;;2.50;99.90;;;;;;4946353;28;20035;-70
2022/01/10 01:49:43;;;;;;;19.15;7.10;;;2.50;99.90;;;;;;4944139;29;20398;-70
2022/01/10 01:52:08;;;;;;;13.65;6.40;;;2.50;99.90;;;;;;4950718;29;20035;-71
2022/01/10 01:54:37;;;;;;;17.83;7.78;;;2.50;99.90;;;;;;4945316;28;20019;-71
2022/01/10 01:57:04;;;;;;;15.15;6.85;;;2.50;99.90;;;;;;4944274;28;20020;-70
2022/01/10 01:59:29;;;;;;;14.57;7.47;;;2.50;99.90;;;;;;4945521;28;20035;-70
2022/01/10 02:01:58;;;;;;;11.35;6.53;;;2.50;99.90;;;;;;4944886;29;20027;-70
2022/01/10 02:04:23;;;;;;;11.50;6.70;;;2.50;99.90;;;;;;4951042;28;20497;-69
2022/01/10 02:06:49;;;;;;;16.38;7.32;;;2.50;99.90;;;;;;4946948;28;20114;-70
2022/01/10 02:09:16;;;;;;;11.55;6.47;;;2.50;99.90;;;;;;4944701;28;20055;-69
2022/01/10 02:11:45;;;;;;;12.35;7.10;;;2.40;99.90;;;;;;4945114;29;20027;-70
2022/01/10 02:14:11;;;;;;;15.35;7.45;;;2.50;99.90;;;;;;4947951;28;20042;-69
2022/01/10 02:16:44;;;;;;;13.93;7.55;;;2.40;99.90;;;;;;4949191;28;20540;-70
2022/01/10 02:19:10;;;;;;;15.15;7.78;;;2.50;99.90;;;;;;4946037;28;20481;-70
2022/01/10 02:21:39;;;;;;;10.68;6.00;;;2.40;99.90;;;;;;4930379;29;20485;-69
2022/01/10 02:24:05;;;;;;;15.05;7.43;;;2.50;99.90;;;;;;4930966;29;20058;-70
2022/01/10 02:26:32;;;;;;;11.90;6.75;;;2.50;99.90;;;;;;4933464;29;20050;-69
2022/01/10 02:29:00;;;;;;;12.77;6.25;;;2.60;99.90;;;;;;4952657;29;20027;-69
2022/01/10 02:31:26;;;;;;;9.73;5.50;;;2.60;99.90;;;;;;4946755;29;20031;-69
2022/01/10 02:33:56;;;;;;;11.43;4.13;;;2.60;99.90;;;;;;4932193;29;20035;-70
2022/01/10 02:36:26;;;;;;;8.77;4.85;;;2.50;99.90;;;;;;4948663;28;20019;-70
2022/01/10 02:39:06;;;;;;;8.30;4.25;;;2.50;99.90;;;;;;4947990;29;20023;-71
2022/01/10 02:41:34;;;;;;;8.57;4.47;;;2.50;99.90;;;;;;4949013;28;20078;-70
2022/01/10 02:44:15;;;;;;;8.80;4.70;;;2.50;99.90;;;;;;4951175;28;20027;-70
2022/01/10 02:46:45;;;;;;;11.15;4.38;;;2.50;99.90;;;;;;4949855;28;20464;-71
2022/01/10 02:49:25;;;;;;;10.13;4.32;;;2.50;99.90;;;;;;4928445;29;20464;-71
2022/01/10 02:51:51;;;;;;;9.13;4.07;;;2.50;99.90;;;;;;4945371;28;20035;-72
2022/01/10 02:54:23;;;;;;;10.15;5.22;;;2.50;99.90;;;;;;4950092;28;20023;-71
2022/01/10 02:56:54;;;;;;;9.13;5.03;;;2.50;99.90;;;;;;4947969;28;20030;-71
2022/01/10 02:59:21;;;;;;;9.27;4.35;;;2.50;99.90;;;;;;4950925;28;20076;-71
2022/01/10 03:01:47;;;;;;;9.02;4.72;;;2.50;99.90;;;;;;4948534;29;20035;-72
2022/01/10 03:04:15;;;;;;;8.95;4.70;;;2.50;99.90;;;;;;4940682;28;20111;-71
2022/01/10 03:06:42;;;;;;;10.07;4.88;;;2.50;99.90;;;;;;4944641;28;20114;-71
2022/01/10 03:09:09;;;;;;;8.50;4.55;;;2.50;99.90;;;;;;4949123;28;20178;-71
2022/01/10 03:11:40;;;;;;;10.38;4.80;;;2.50;99.90;;;;;;4946370;28;20110;-71
2022/01/10 03:14:06;;;;;;;7.35;4.20;;;2.50;99.90;;;;;;4948021;28;20078;-71
2022/01/10 03:16:32;;;;;;;9.75;4.38;;;2.40;99.90;;;;;;4953999;28;20452;-71
2022/01/10 03:18:58;;;;;;;10.63;4.28;;;2.40;99.90;;;;;;4948261;28;20302;-71
2022/01/10 03:21:24;;;;;;;11.27;4.80;;;2.50;99.90;;;;;;4931979;29;20038;-71
2022/01/10 03:23:51;;;;;;;7.80;5.07;;;2.50;99.90;;;;;;4949402;29;20038;-71
2022/01/10 03:26:26;;;;;;;10.82;4.97;;;2.50;99.90;;;;;;4952027;28;20063;-70
2022/01/10 03:28:52;;;;;;;8.88;4.93;;;2.50;99.90;;;;;;4952160;29;20046;-70
2022/01/10 03:31:24;;;;;;;8.18;4.00;;;2.50;99.90;;;;;;4952223;28;20035;-70
2022/01/10 03:33:53;;;;;;;12.23;4.85;;;2.50;99.90;;;;;;4950520;29;20027;-71
2022/01/10 03:36:22;;;;;;;7.78;3.58;;;2.50;99.90;;;;;;4945183;29;20405;-70
2022/01/10 03:38:50;;;;;;;7.15;3.42;;;2.50;99.90;;;;;;4948867;28;20934;-70
2022/01/10 03:41:16;;;;;;;9.95;3.88;;;2.50;99.90;;;;;;4946666;29;20035;-70
2022/01/10 03:43:44;;;;;;;7.22;3.75;;;2.50;99.90;;;;;;4947551;29;20031;-70
2022/01/10 03:46:10;;;;;;;12.75;3.78;;;2.50;99.90;;;;;;4928330;29;20127;-70
2022/01/10 03:48:36;;;;;;;11.20;4.40;;;2.50;99.90;;;;;;4949238;28;20146;-71
2022/01/10 03:51:02;;;;;;;11.85;5.70;;;2.50;99.90;;;;;;4935386;28;20031;-70
2022/01/10 03:53:28;;;;;;;13.52;5.28;;;2.50;99.90;;;;;;4930336;28;20024;-70
2022/01/10 03:55:54;;;;;;;13.50;5.68;;;2.60;99.90;;;;;;4949072;28;20019;-71
2022/01/10 03:58:20;;;;;;;13.77;6.38;;;2.60;99.90;;;;;;4946744;29;20027;-71
2022/01/10 04:00:46;;;;;;;12.40;6.43;;;2.70;99.90;;;;;;4953367;28;20027;-71
2022/01/10 04:03:12;;;;;;;14.70;6.50;;;2.70;99.90;;;;;;4953116;29;20408;-70
2022/01/10 04:05:37;;;;;;;12.88;6.20;;;2.70;99.90;;;;;;4935470;29;20452;-71
2022/01/10 04:08:06;;;;;;;10.63;5.80;;;2.70;99.90;;;;;;4951670;28;20038;-70
2022/01/10 04:10:32;;;;;;;12.60;5.43;;;2.70;99.90;;;;;;4949058;29;20043;-71
2022/01/10 04:12:58;;;;;;;13.00;5.60;;;2.80;99.90;;;;;;4932653;29;20080;-70
2022/01/10 04:15:27;;;;;;;9.15;5.93;;;2.80;99.90;;;;;;4949995;28;20047;-71
2022/01/10 04:17:56;;;;;;;12.02;5.97;;;2.80;99.90;;;;;;4949346;28;20514;-71
2022/01/10 04:20:22;;;;;;;11.32;6.38;;;2.80;99.90;;;;;;4945428;28;20050;-70
2022/01/10 04:22:48;;;;;;;12.32;6.25;;;2.90;99.90;;;;;;4953402;28;20067;-71
2022/01/10 04:25:14;;;;;;;9.23;5.55;;;2.80;99.90;;;;;;4955276;28;20093;-70
2022/01/10 04:27:42;;;;;;;11.55;5.05;;;2.80;99.90;;;;;;4935621;28;20035;-71
2022/01/10 04:30:08;;;;;;;9.77;5.43;;;2.80;99.90;;;;;;4935164;29;20543;-70
2022/01/10 04:32:34;;;;;;;12.27;4.85;;;2.80;99.90;;;;;;4952107;29;20551;-70
2022/01/10 04:35:00;;;;;;;9.13;5.30;;;2.80;99.90;;;;;;4951041;28;20024;-70
2022/01/10 04:37:28;;;;;;;9.30;4.60;;;2.80;99.90;;;;;;4951373;28;20037;-71
2022/01/10 04:39:54;;;;;;;11.55;5.65;;;2.80;99.90;;;;;;4951403;28;20102;-70
2022/01/10 04:42:20;;;;;;;9.52;4.95;;;2.90;99.90;;;;;;4947937;28;20515;-70
2022/01/10 04:44:46;;;;;;;9.98;4.75;;;2.90;99.90;;;;;;4949474;28;20094;-70
2022/01/10 04:47:11;;;;;;;8.65;4.90;;;2.90;99.90;;;;;;4946464;28;20035;-70
2022/01/10 04:52:18;;;;;;;9.48;4.32;;;2.80;99.90;;;;;;4953907;28;20114;-70
2022/01/10 04:54:43;;;;;;;12.18;4.93;;;2.90;99.90;;;;;;4952075;28;20091;-69
2022/01/10 04:57:09;;;;;;;7.97;4.97;;;2.90;99.90;;;;;;4955247;29;20019;-70
2022/01/10 04:59:35;;;;;;;7.40;4.25;;;2.90;99.90;;;;;;4955249;29;20452;-70
2022/01/10 05:02:01;;;;;;;10.68;4.97;;;2.90;99.90;;;;;;4955804;28;20031;-70
2022/01/10 05:04:26;;;;;;;10.52;4.70;;;2.90;99.90;;;;;;4948762;28;20062;-70
2022/01/10 05:06:55;;;;;;;8.82;5.45;;;2.90;99.90;;;;;;4947741;28;20074;-70
2022/01/10 05:09:21;;;;;;;10.30;5.97;;;2.80;99.90;;;;;;4948467;28;20058;-70
2022/01/10 05:11:52;;;;;;;13.45;6.50;;;2.90;99.90;;;;;;4949069;29;20364;-70
2022/01/10 05:14:24;;;;;;;14.40;6.03;;;2.90;99.90;;;;;;4951014;28;20771;-70
2022/01/10 05:16:56;;;;;;;13.45;6.68;;;2.90;99.90;;;;;;4948974;28;20086;-70
2022/01/10 05:19:22;;;;;;;13.70;5.40;;;2.90;99.90;;;;;;4954169;28;20369;-70
2022/01/10 05:21:50;;;;;;;9.32;5.93;;;2.90;99.90;;;;;;4949185;28;20031;-70
2022/01/10 05:24:21;;;;;;;11.80;6.55;;;2.90;99.90;;;;;;4951303;29;20031;-70
2022/01/10 05:26:56;;;;;;;14.57;8.27;;;2.90;99.90;;;;;;4949194;28;20045;-70
2022/01/10 05:29:22;;;;;;;11.70;6.68;;;2.90;99.90;;;;;;4933544;28;20039;-70
2022/01/10 05:31:47;;;;;;;10.43;6.15;;;2.90;99.90;;;;;;4948405;28;20035;-69
2022/01/10 05:34:13;;;;;;;14.15;6.90;;;3.00;99.90;;;;;;4934912;29;20056;-70
2022/01/10 05:36:39;;;;;;;14.35;5.80;;;3.00;99.90;;;;;;4947290;29;20055;-70
2022/01/10 05:39:07;;;;;;;10.48;5.82;;;2.90;99.90;;;;;;4953503;28;20029;-70
2022/01/10 05:41:33;;;;;;;10.75;6.18;;;2.90;99.90;;;;;;4949441;28;20380;-71
2022/01/10 05:43:59;;;;;;;11.45;5.32;;;2.90;99.90;;;;;;4948453;29;20062;-71
2022/01/10 05:46:25;;;;;;;13.05;5.45;;;2.90;99.90;;;;;;4951674;28;20063;-68
2022/01/10 05:48:59;;;;;;;9.90;5.53;;;2.90;99.90;;;;;;4952014;28;20031;-67
2022/01/10 05:51:29;;;;;;;12.57;5.38;;;3.10;99.90;;;;;;4947472;29;20027;-66
2022/01/10 05:53:55;;;;;;;12.48;6.55;;;3.10;99.90;;;;;;4932909;29;20063;-67
2022/01/10 05:56:21;;;;;;;15.35;7.25;;;3.10;99.90;;;;;;4948904;28;20505;-70
2022/01/10 05:58:46;;;;;;;13.25;6.22;;;3.20;99.90;;;;;;4948034;28;20019;-69
2022/01/10 06:01:12;;;;;;;15.15;5.57;;;3.20;99.90;;;;;;4945402;28;20051;-70
2022/01/10 06:03:38;;;;;;;15.77;6.18;;;3.20;99.90;;;;;;4949496;28;20063;-70
2022/01/10 06:06:03;;;;;;;9.63;5.57;;;3.20;99.90;;;;;;4952535;28;20058;-70
2022/01/10 06:08:29;;;;;;;9.65;5.22;;;3.10;99.90;;;;;;4946828;29;20043;-70
2022/01/10 06:10:55;;;;;;;10.10;5.45;;;3.10;99.90;;;;;;4930536;29;20095;-70
2022/01/10 06:13:21;;;;;;;12.95;5.97;;;3.00;99.90;;;;;;4946010;28;20027;-70
2022/01/10 06:15:46;;;;;;;8.40;4.93;;;3.00;99.90;;;;;;4949905;28;20054;-70
2022/01/10 06:18:12;;;;;;;10.50;5.45;;;3.00;99.90;;;;;;4953275;28;20146;-70
2022/01/10 06:20:38;;;;;;;10.10;4.65;;;3.00;99.90;;;;;;4946500;28;20036;-70
2022/01/10 06:23:03;;;;;;;7.55;4.65;;;3.00;99.90;;;;;;4931428;29;20472;-70
2022/01/10 06:25:29;;;;;;;10.82;5.40;;;3.00;99.90;;;;;;4950054;28;20031;-70
2022/01/10 06:27:57;;;;;;;13.55;5.68;;;3.00;99.90;;;;;;4948119;28;20031;-70
2022/01/10 06:30:23;;;;;;;11.80;6.30;;;3.00;99.90;;;;;;4948186;28;20126;-70
2022/01/10 06:32:50;;;;;;;12.18;7.00;;;3.00;99.90;;;;;;4948409;28;20529;-70
2022/01/10 06:35:15;;;;;;;12.45;6.85;;;2.90;99.90;;;;;;4933783;28;20050;-70
2022/01/10 06:37:42;;;;;;;11.77;6.28;;;2.90;99.90;;;;;;4947651;28;20448;-70
2022/01/10 06:40:08;;;;;;;11.20;6.10;;;2.90;99.90;;;;;;4949180;28;20232;-70
2022/01/10 06:42:34;;;;;;;12.10;5.90;;;2.90;99.90;;;;;;4950927;28;20031;-71
2022/01/10 06:45:00;;;;;;;10.85;5.18;;;2.80;99.90;;;;;;4949491;28;20041;-71
2022/01/10 06:47:26;;;;;;;11.43;5.75;;;2.90;99.90;;;;;;4959631;23;20050;-80
2022/01/10 06:49:52;;;;;;;10.30;6.15;;;2.80;99.90;;;;;;4949566;28;20038;-80
2022/01/10 06:52:18;;;;;;;10.98;5.72;;;2.70;99.90;;;;;;4955098;28;20031;-80
2022/01/10 06:54:44;;;;;;;14.90;6.22;;;2.70;99.90;;;;;;4950267;28;20125;-78
2022/01/10 06:57:10;;;;;;;11.05;5.57;;;2.80;99.90;;;;;;4952413;28;20527;-79
2022/01/10 06:59:35;;;;;;;12.63;6.32;;;2.80;99.90;;;;;;4946176;28;20056;-79
2022/01/10 07:02:01;;;;;;;12.00;6.65;;;2.80;99.90;;;;;;4955581;28;20038;-79
2022/01/10 07:04:28;;;;;;;12.30;6.30;;;2.80;99.90;;;;;;4951961;28;20026;-79
2022/01/10 07:06:54;;;;;;;16.95;6.88;;;2.80;99.90;;;;;;4953680;28;20031;-79
2022/01/10 07:09:20;;;;;;;16.63;7.53;;;2.70;99.90;;;;;;4955855;28;20517;-80
2022/01/10 07:11:47;;;;;;;14.30;7.57;;;2.70;99.90;;;;;;4954025;28;20032;-79
2022/01/10 07:14:14;;;;;;;14.70;7.90;;;2.60;99.90;;;;;;4952663;28;20027;-80
2022/01/10 07:16:40;;;;;;;13.05;7.38;;;2.60;99.90;;;;;;4952222;28;20027;-81
2022/01/10 07:19:06;;;;;;;16.95;8.45;;;2.60;99.90;;;;;;4948827;28;20103;-83
2022/01/10 07:21:34;;;;;;;17.52;8.00;;;2.60;99.90;;;;;;4947489;28;20047;-84
2022/01/10 07:23:59;;;;;;;13.00;7.32;;;2.60;99.90;;;;;;4935123;28;20023;-84
2022/01/10 07:26:27;;;;;;;14.35;8.20;;;2.60;99.90;;;;;;4956696;28;20527;-84
2022/01/10 07:28:53;;;;;;;14.23;7.80;;;2.70;99.90;;;;;;4953659;28;20054;-84
2022/01/10 07:31:19;;;;;;;14.43;7.78;;;2.70;99.90;;;;;;4938901;28;20507;-84
2022/01/10 07:33:45;;;;;;;14.95;7.80;;;2.70;99.90;;;;;;4953603;28;20031;-85
2022/01/10 07:36:10;;;;;;;17.90;9.07;;;2.80;99.90;;;;;;4955172;28;20031;-85
2022/01/10 07:38:36;;;;;;;19.83;9.02;;;2.80;99.90;;;;;;4937329;28;20023;-84
2022/01/10 07:41:04;;;;;;;17.15;9.70;;;2.80;99.90;;;;;;4938027;28;20023;-85
2022/01/10 07:43:30;;;;;;;20.00;9.60;;;2.80;99.90;;;;;;4955044;28;20635;-85
2022/01/10 07:45:56;;;;;;;15.82;9.15;;;2.90;99.90;;;;;;4938412;28;20027;-85
2022/01/10 07:48:21;;;;;;;16.80;9.48;;;2.90;99.90;;;;;;4959759;28;20038;-84
2022/01/10 07:50:47;;;;;;;18.67;10.18;;;2.90;99.90;;;;;;4932876;28;20503;-85
2022/01/10 07:53:13;;;;;;;16.23;9.65;;;2.90;99.90;;;;;;4936399;28;20606;-85
2022/01/10 07:55:38;;;;;;;14.95;9.73;;;2.90;99.90;;;;;;4961179;28;20122;-85
2022/01/10 07:58:04;;;;;;;20.23;11.18;;;2.90;99.90;;;;;;4936815;28;20051;-84
2022/01/10 08:00:30;;;;;;;19.20;10.10;;;3.00;99.90;;;;;;4935698;28;20038;-85
2022/01/10 08:02:55;;;;;;;16.38;9.95;;;2.90;99.90;;;;;;4957647;28;20027;-84
2022/01/10 08:05:21;;;;;;;25.98;13.00;;;3.00;99.90;;;;;;4944872;28;20090;-84
2022/01/10 08:07:47;;;;;;;40.45;16.92;;;2.90;99.90;;;;;;4943224;28;20027;-85
2022/01/10 08:10:13;;;;;;;23.20;12.75;;;2.90;99.90;;;;;;4958332;28;20542;-84
2022/01/10 08:12:38;;;;;;;20.42;10.88;;;3.00;99.90;;;;;;4957097;28;20515;-85
2022/01/10 08:15:05;;;;;;;16.38;9.10;;;3.00;99.90;;;;;;4953419;28;20652;-85
2022/01/10 08:17:30;;;;;;;18.25;8.95;;;3.00;99.90;;;;;;4949608;28;20039;-85
2022/01/10 08:19:56;;;;;;;15.23;10.13;;;3.00;99.90;;;;;;4933825;28;20083;-85
2022/01/10 08:22:22;;;;;;;16.83;10.38;;;3.00;99.90;;;;;;4935694;28;20079;-86
2022/01/10 08:24:49;;;;;;;16.77;9.50;;;3.00;99.90;;;;;;4940300;28;20050;-84
2022/01/10 08:27:15;;;;;;;14.35;8.88;;;3.00;99.90;;;;;;4909417;28;20043;-85
2022/01/10 08:29:42;;;;;;;15.75;9.10;;;3.00;99.90;;;;;;4952244;28;20050;-85
2022/01/10 08:32:08;;;;;;;15.95;9.68;;;3.00;99.90;;;;;;4937246;28;20349;-84
2022/01/10 08:34:34;;;;;;;14.48;9.43;;;3.10;99.90;;;;;;4945207;28;20031;-85
2022/01/10 08:36:59;;;;;;;14.63;9.07;;;3.10;99.90;;;;;;4939845;28;20030;-84
2022/01/10 08:39:25;;;;;;;15.52;9.55;;;3.10;99.90;;;;;;4959648;28;20515;-84
2022/01/10 08:41:53;;;;;;;16.65;9.98;;;3.10;99.90;;;;;;4938836;28;20031;-85
2022/01/10 08:44:19;;;;;;;18.30;9.02;;;3.10;99.90;;;;;;4939880;28;20023;-84
2022/01/10 08:46:46;;;;;;;17.40;9.27;;;3.20;99.90;;;;;;4954288;28;20034;-85
2022/01/10 08:49:13;;;;;;;18.58;10.25;;;3.20;99.90;;;;;;4955255;28;20027;-86
2022/01/10 08:51:40;;;;;;;15.50;9.10;;;3.20;99.90;;;;;;4959826;28;20119;-85
2022/01/10 08:54:06;;;;;;;15.68;9.45;;;3.30;99.90;;;;;;4946413;28;20065;-86
2022/01/10 08:56:32;;;;;;;16.83;9.88;;;3.30;99.90;;;;;;4946780;28;20035;-85
2022/01/10 08:58:59;;;;;;;17.52;9.13;;;3.30;99.90;;;;;;4939968;28;20023;-85
2022/01/10 09:01:26;;;;;;;15.27;9.88;;;3.40;99.90;;;;;;4938614;28;20051;-85
2022/01/10 09:03:53;;;;;;;16.48;9.38;;;3.40;99.90;;;;;;4929522;29;20039;-83
2022/01/10 09:06:19;;;;;;;17.05;10.07;;;3.40;99.90;;;;;;4949277;28;20035;-84
2022/01/10 09:08:47;;;;;;;16.83;9.77;;;3.50;99.90;;;;;;4936803;28;20067;-82
2022/01/10 09:11:14;;;;;;;20.13;11.75;;;3.50;99.90;;;;;;4943058;28;20031;-82
2022/01/10 09:13:40;;;;;;;21.20;11.60;;;3.60;99.90;;;;;;4932581;28;20049;-81
2022/01/10 09:16:11;;;;;;;21.00;11.48;;;3.70;99.90;;;;;;4958814;28;20106;-80
2022/01/10 09:18:37;;;;;;;22.65;12.45;;;3.70;99.90;;;;;;4940782;28;20039;-85
2022/01/10 09:21:03;;;;;;;19.13;11.15;;;3.70;99.90;;;;;;4959218;28;20020;-85
2022/01/10 09:23:29;;;;;;;16.77;10.88;;;3.70;99.90;;;;;;4935690;28;20023;-84
2022/01/10 09:25:55;;;;;;;17.20;9.77;;;3.70;99.90;;;;;;4929211;29;20027;-81
2022/01/10 09:28:21;;;;;;;18.08;10.00;;;3.80;99.90;;;;;;4958980;28;20528;-83
2022/01/10 09:30:48;;;;;;;18.08;9.85;;;3.70;99.90;;;;;;4958999;28;20111;-81
2022/01/10 09:33:14;;;;;;;17.05;9.57;;;3.80;99.90;;;;;;4956102;28;20034;-82
2022/01/10 09:35:42;;;;;;;18.38;10.20;;;3.80;99.90;;;;;;4958411;28;20523;-83
2022/01/10 09:38:09;;;;;;;22.40;11.15;;;3.80;99.90;;;;;;4939599;28;20032;-83
2022/01/10 09:40:35;;;;;;;20.70;9.95;;;3.90;99.90;;;;;;4937191;28;20661;-80
2022/01/10 09:43:01;;;;;;;20.73;11.77;;;3.90;99.90;;;;;;4934123;28;20439;-81
2022/01/10 09:45:27;;;;;;;20.65;10.95;;;3.90;99.90;;;;;;4934988;28;20041;-80
2022/01/10 09:47:53;;;;;;;25.55;12.20;;;4.00;99.90;;;;;;4951826;28;20031;-85
2022/01/10 09:50:19;;;;;;;26.35;12.40;;;4.00;99.90;;;;;;4938985;29;20023;-85
2022/01/10 09:52:49;;;;;;;22.10;12.45;;;4.00;99.90;;;;;;4959995;28;20095;-81
2022/01/10 09:55:15;;;;;;;23.23;11.73;;;3.90;99.90;;;;;;4953183;28;20054;-80
2022/01/10 09:57:42;;;;;;;23.27;12.25;;;3.90;99.90;;;;;;4955118;28;20456;-81
2022/01/10 10:00:10;;;;;;;21.40;11.75;;;4.00;99.90;;;;;;4938815;29;20486;-82
2022/01/10 10:02:36;;;;;;;18.38;11.27;;;4.00;99.90;;;;;;4916623;28;20126;-80
2022/01/10 10:05:08;;;;;;;20.45;10.30;;;4.10;99.90;;;;;;4958247;28;20126;-83
2022/01/10 10:07:37;;;;;;;19.45;10.48;;;4.10;99.90;;;;;;4940598;28;20039;-82
2022/01/10 10:10:07;;;;;;;18.70;10.75;;;4.00;99.90;;;;;;4939318;28;20037;-86
2022/01/10 10:12:34;;;;;;;26.83;12.40;;;4.00;99.90;;;;;;4956085;28;20034;-83
2022/01/10 10:15:00;;;;;;;25.45;12.40;;;3.90;99.90;;;;;;4950264;28;20020;-83
2022/01/10 10:17:30;;;;;;;20.63;12.02;;;3.90;99.90;;;;;;4934176;28;20023;-82
2022/01/10 10:19:55;;;;;;;23.20;12.02;;;3.80;99.90;;;;;;4953617;28;20059;-83
2022/01/10 10:22:23;;;;;;;25.63;12.18;;;3.80;99.90;;;;;;4938588;28;20377;-81
2022/01/10 10:24:49;;;;;;;25.27;12.68;;;3.70;99.90;;;;;;4936524;28;20030;-80
2022/01/10 10:27:21;;;;;;;25.70;12.32;;;3.70;99.90;;;;;;4959133;28;20031;-83
2022/01/10 10:29:48;;;;;;;22.80;11.88;;;3.70;99.90;;;;;;4949445;28;20023;-79
2022/01/10 10:32:17;;;;;;;30.40;12.15;;;3.70;99.90;;;;;;4954013;28;20121;-78
2022/01/10 10:34:43;;;;;;;25.63;12.20;;;3.70;99.90;;;;;;4955434;28;20035;-79
2022/01/10 10:37:13;;;;;;;21.85;11.68;;;3.70;99.90;;;;;;4951823;28;20483;-78
2022/01/10 10:39:41;;;;;;;20.60;11.82;;;3.80;99.90;;;;;;4943246;28;20023;-87
2022/01/10 10:42:14;;;;;;;18.75;10.88;;;3.90;99.90;;;;;;4964700;28;20468;-85
2022/01/10 10:44:42;;;;;;;23.33;12.15;;;3.90;99.90;;;;;;4944620;28;20209;-80
2022/01/10 10:47:09;;;;;;;24.35;12.15;;;3.80;99.90;;;;;;4940896;28;20031;-86
2022/01/10 10:49:42;;;;;;;24.52;11.63;;;3.90;99.90;;;;;;4958016;28;20087;-86
2022/01/10 10:52:10;;;;;;;24.75;11.68;;;4.00;99.90;;;;;;4944369;29;20086;-85
2022/01/10 10:54:37;;;;;;;23.15;12.20;;;4.00;99.90;;;;;;4946370;28;20889;-86
2022/01/10 10:57:04;;;;;;;25.85;12.75;;;4.00;99.90;;;;;;4962593;28;20042;-85
2022/01/10 10:59:34;;;;;;;33.60;12.07;;;4.10;99.90;;;;;;4955172;28;20054;-85
2022/01/10 11:02:02;;;;;;;30.45;13.75;;;4.20;99.90;;;;;;4944891;28;20019;-85
2022/01/10 11:04:30;;;;;;;29.40;14.60;;;4.30;99.90;;;;;;4934851;28;20441;-84
2022/01/10 11:06:56;;;;;;;27.70;14.27;;;4.40;99.90;;;;;;4954615;28;20110;-86
2022/01/10 11:09:22;;;;;;;25.27;11.82;;;4.50;99.90;;;;;;4941916;28;20534;-84
2022/01/10 11:11:48;;;;;;;21.95;10.88;;;4.50;99.90;;;;;;4960623;28;20039;-86
2022/01/10 11:14:17;;;;;;;21.17;11.45;;;4.50;99.90;;;;;;4946268;28;20031;-84
2022/01/10 11:16:45;;;;;;;19.13;11.40;;;4.50;99.90;;;;;;4952398;28;20496;-84
2022/01/10 11:19:15;;;;;;;21.77;11.75;;;4.50;99.90;;;;;;4953953;28;20082;-83
2022/01/10 11:21:46;;;;;;;23.70;11.68;;;4.40;99.90;;;;;;4932144;28;20448;-85
2022/01/10 11:24:26;;;;;;;20.65;11.73;;;4.30;99.90;;;;;;4936555;28;20027;-83
2022/01/10 11:26:52;;;;;;;26.15;12.77;;;4.10;99.90;;;;;;4955337;28;20027;-82
2022/01/10 11:29:18;;;;;;;24.33;10.77;;;4.10;99.90;;;;;;4936033;28;21311;-85
2022/01/10 11:31:46;;;;;;;27.00;12.57;;;4.00;99.90;;;;;;4957413;28;20479;-84
2022/01/10 11:34:12;;;;;;;25.73;13.20;;;4.00;99.90;;;;;;4940956;28;20031;-90
2022/01/10 11:36:46;;;;;;;27.38;12.25;;;4.00;99.90;;;;;;4967179;28;20027;-87
2022/01/10 11:39:13;;;;;;;30.73;12.70;;;4.00;99.90;;;;;;4944558;29;20034;-89
2022/01/10 11:41:39;;;;;;;24.45;13.32;;;4.00;99.90;;;;;;4963744;28;20028;-90
2022/01/10 11:44:13;;;;;;;26.83;13.82;;;4.00;99.90;;;;;;4960419;28;20038;-87
2022/01/10 11:46:42;;;;;;;25.17;13.90;;;4.00;99.90;;;;;;4945750;28;20024;-90
2022/01/10 11:49:13;;;;;;;26.88;11.45;;;4.00;99.90;;;;;;4968857;28;20027;-89
2022/01/10 11:51:50;;;;;;;22.80;12.23;;;4.00;99.90;;;;;;4936818;28;20094;-87
2022/01/10 11:54:18;;;;;;;25.52;13.25;;;3.90;99.90;;;;;;4966359;28;20046;-87
2022/01/10 11:56:46;;;;;;;30.65;14.02;;;3.90;99.90;;;;;;4951562;28;20236;-89
2022/01/10 11:59:19;;;;;;;29.92;14.40;;;3.80;99.90;;;;;;4949699;28;20042;-86
2022/01/10 12:01:58;;;;;;;28.55;13.63;;;3.90;99.90;;;;;;4942560;28;20039;-86
2022/01/10 12:04:26;;;;;;;29.10;12.73;;;3.90;99.90;;;;;;4946874;28;20042;-88
2022/01/10 12:06:53;;;;;;;26.15;13.60;;;3.90;99.90;;;;;;4947949;28;20027;-87
2022/01/10 12:09:20;;;;;;;27.90;12.90;;;3.90;99.90;;;;;;4944215;29;20038;-89
2022/01/10 12:11:47;;;;;;;28.52;13.63;;;3.90;99.90;;;;;;4943122;28;20041;-88
2022/01/10 12:14:13;;;;;;;23.80;12.85;;;3.90;99.90;;;;;;4948559;28;20055;-89
2022/01/10 12:16:40;;;;;;;28.00;13.65;;;3.80;99.90;;;;;;4950005;28;20035;-89
2022/01/10 12:19:07;;;;;;;29.73;14.30;;;3.70;99.90;;;;;;4955602;28;20026;-86
2022/01/10 12:21:33;;;;;;;26.70;13.43;;;3.70;99.90;;;;;;4947535;28;20083;-87
2022/01/10 12:24:00;;;;;;;28.55;13.60;;;3.70;99.90;;;;;;4968441;28;20052;-88
2022/01/10 12:26:27;;;;;;;25.80;12.15;;;3.70;99.90;;;;;;4953165;28;20035;-90
2022/01/10 12:28:59;;;;;;;23.73;12.60;;;3.60;99.90;;;;;;4988514;23;20049;-82
2022/01/10 12:31:28;;;;;;;29.00;11.35;;;3.50;99.90;;;;;;4989183;28;20108;-83
2022/01/10 12:33:56;;;;;;;28.02;11.50;;;3.40;99.90;;;;;;5000890;28;20030;-82
2022/01/10 12:36:24;;;;;;;22.95;12.13;;;3.50;99.90;;;;;;4999381;28;20035;-81
2022/01/10 12:38:53;;;;;;;25.02;10.98;;;3.40;99.90;;;;;;4985096;28;20022;-81
2022/01/10 12:41:20;;;;;;;29.33;13.63;;;3.40;99.90;;;;;;4975911;28;20019;-82
2022/01/10 12:43:48;;;;;;;24.20;11.02;;;3.50;99.90;;;;;;4974325;28;20027;-84
2022/01/10 12:46:15;;;;;;;29.33;11.05;;;3.50;99.90;;;;;;4976257;28;20683;-82
2022/01/10 12:48:43;;;;;;;20.33;9.43;;;3.50;99.90;;;;;;4972965;28;20123;-83
2022/01/10 12:51:10;;;;;;;26.00;10.80;;;3.50;99.90;;;;;;4980052;28;20476;-84
2022/01/10 12:53:36;;;;;;;16.90;9.15;;;3.60;99.90;;;;;;4971639;28;20032;-83